createdAt,value
2023-02-18T00:00:05.268Z,100703.11
2023-02-18T00:00:28.787Z,100702.19
2023-02-18T00:00:51.998Z,100700.64
2023-02-18T00:01:15.936Z,100698.39
2023-02-18T00:01:39.676Z,100701.87
2023-02-18T00:02:29.114Z,100700.69
2023-02-18T00:02:52.931Z,100702.31
2023-02-18T00:03:16.523Z,100704.79
2023-02-18T00:03:41.170Z,100700.84
2023-02-18T00:04:04.675Z,100704.19
2023-02-18T00:04:27.995Z,100699.88
2023-02-18T00:04:51.108Z,100702.35
2023-02-18T00:05:14.531Z,100703.59
2023-02-18T00:05:37.502Z,100702.58
2023-02-18T00:06:00.552Z,100702.42
2023-02-18T00:06:24.831Z,100702.45
2023-02-18T00:06:50.160Z,100698.48
2023-02-18T00:07:18.505Z,100701.66
2023-02-18T00:07:45.081Z,100701.35
2023-02-18T00:08:08.396Z,100698.08
2023-02-18T00:08:33.557Z,100698.29
2023-02-18T00:08:59.038Z,100701.43
2023-02-18T00:09:22.052Z,100698.36
2023-02-18T00:09:46.385Z,100697.03
2023-02-18T00:10:11.354Z,100699.83
2023-02-18T00:10:34.452Z,100695.67
2023-02-18T00:10:57.660Z,100698.84
2023-02-18T00:11:21.403Z,100695.73
2023-02-18T00:11:44.622Z,100693.71
2023-02-18T00:12:07.543Z,100694.05
2023-02-18T00:12:31.353Z,100691.33
2023-02-18T00:12:56.712Z,100689.23
2023-02-18T00:13:22.285Z,100689.45
2023-02-18T00:13:50.095Z,100689.64
2023-02-18T00:14:13.730Z,100689.15
2023-02-18T00:14:38.471Z,100685.52
2023-02-18T00:15:01.587Z,100681.75
2023-02-18T00:15:25.623Z,100685.04
2023-02-18T00:15:48.853Z,100679.27
2023-02-18T00:16:12.864Z,100681.33
2023-02-18T00:16:36.033Z,100680.23
2023-02-18T00:16:59.201Z,100679.80
2023-02-18T00:17:22.216Z,100677.48
2023-02-18T00:17:45.328Z,100677.06
2023-02-18T00:18:08.541Z,100676.12
2023-02-18T00:18:31.677Z,100674.16
2023-02-18T00:18:59.783Z,100675.28
2023-02-18T00:19:22.689Z,100673.10
2023-02-18T00:19:45.838Z,100672.21
2023-02-18T00:20:09.270Z,100672.69
2023-02-18T00:20:33.769Z,100669.48
2023-02-18T00:20:57.092Z,100670.69
2023-02-18T00:21:20.412Z,100670.30
2023-02-18T00:21:44.387Z,100666.69
2023-02-18T00:22:07.458Z,100666.88
2023-02-18T00:22:30.574Z,100663.45
2023-02-18T00:22:54.093Z,100665.02
2023-02-18T00:23:17.310Z,100659.16
2023-02-18T00:23:41.985Z,100661.07
2023-02-18T00:24:06.109Z,100660.58
2023-02-18T00:24:35.139Z,100657.17
2023-02-18T00:25:23.928Z,100657.91
2023-02-18T00:25:47.245Z,100656.32
2023-02-18T00:26:12.095Z,100652.94
2023-02-18T00:27:00.977Z,100650.38
2023-02-18T00:27:24.310Z,100649.42
2023-02-18T00:27:47.824Z,100648.66
2023-02-18T00:28:10.938Z,100647.35
2023-02-18T00:28:34.051Z,100648.83
2023-02-18T00:28:57.071Z,100645.73
2023-02-18T00:29:20.279Z,100647.21
2023-02-18T00:29:46.872Z,100650.55
2023-02-18T00:30:11.274Z,100649.70
2023-02-18T00:30:34.459Z,100646.09
2023-02-18T00:30:58.118Z,100650.15
2023-02-18T00:31:21.991Z,100651.05
2023-02-18T00:31:45.425Z,100646.25
2023-02-18T00:32:08.794Z,100647.29
2023-02-18T00:32:33.783Z,100644.35
2023-02-18T00:32:56.939Z,100643.68
2023-02-18T00:33:20.727Z,100641.98
2023-02-18T00:33:43.741Z,100641.80
2023-02-18T00:34:07.061Z,100638.89
2023-02-18T00:34:55.692Z,100635.73
2023-02-18T00:35:19.570Z,100638.08
2023-02-18T00:35:42.890Z,100640.52
2023-02-18T00:36:10.073Z,100640.16
2023-02-18T00:36:33.626Z,100641.10
2023-02-18T00:36:56.849Z,100645.98
2023-02-18T00:37:45.930Z,100643.70
2023-02-18T00:38:09.261Z,100642.27
2023-02-18T00:38:32.667Z,100646.52
2023-02-18T00:38:56.903Z,100644.39
2023-02-18T00:39:20.019Z,100640.52
2023-02-18T00:39:44.355Z,100637.14
2023-02-18T00:40:07.880Z,100632.33
2023-02-18T00:40:37.099Z,100628.64
2023-02-18T00:41:02.820Z,100624.52
2023-02-18T00:41:27.149Z,100621.17
2023-02-18T00:42:15.629Z,100620.45
2023-02-18T00:42:38.837Z,100617.23
2023-02-18T00:43:02.057Z,100618.99
2023-02-18T00:43:25.582Z,100616.58
2023-02-18T00:43:48.668Z,100614.48
2023-02-18T00:44:12.327Z,100614.04
2023-02-18T00:44:35.444Z,100614.42
2023-02-18T00:44:58.752Z,100614.63
2023-02-18T00:45:46.757Z,100615.01
2023-02-18T00:46:10.227Z,100610.74
2023-02-18T00:46:34.626Z,100609.55
2023-02-18T00:46:57.687Z,100609.05
2023-02-18T00:47:20.811Z,100607.54
2023-02-18T00:47:43.855Z,100607.55
2023-02-18T00:48:07.156Z,100607.61
2023-02-18T00:48:30.665Z,100606.08
2023-02-18T00:48:54.086Z,100602.25
2023-02-18T00:49:17.095Z,100602.13
2023-02-18T00:49:40.118Z,100601.92
2023-02-18T00:50:28.708Z,100603.16
2023-02-18T00:50:53.666Z,100597.11
2023-02-18T00:51:19.829Z,100595.92
2023-02-18T00:51:44.986Z,100593.02
2023-02-18T00:52:08.620Z,100593.07
2023-02-18T00:52:31.826Z,100588.73
2023-02-18T00:52:56.988Z,100585.61
2023-02-18T00:53:22.769Z,100587.03
2023-02-18T00:53:45.828Z,100584.96
2023-02-18T00:54:08.888Z,100588.08
2023-02-18T00:54:32.009Z,100586.04
2023-02-18T00:54:55.203Z,100585.03
2023-02-18T00:55:18.224Z,100586.27
2023-02-18T00:55:42.368Z,100584.55
2023-02-18T00:56:07.631Z,100585.11
2023-02-18T00:56:31.047Z,100583.02
2023-02-18T00:56:54.890Z,100584.31
2023-02-18T00:57:17.829Z,100584.86
2023-02-18T00:57:41.000Z,100589.23
2023-02-18T00:58:04.220Z,100587.66
2023-02-18T00:58:28.663Z,100586.44
2023-02-18T00:58:52.391Z,100585.92
2023-02-18T00:59:16.631Z,100584.67
2023-02-18T00:59:40.360Z,100587.23
2023-02-18T01:00:05.335Z,100588.58
2023-02-18T01:00:28.633Z,100585.91
2023-02-18T01:00:52.157Z,100586.90
2023-02-18T01:01:15.278Z,100586.98
2023-02-18T01:01:38.489Z,100584.27
2023-02-18T01:02:04.407Z,100587.68
2023-02-18T01:02:27.576Z,100589.52
2023-02-18T01:02:54.809Z,100587.33
2023-02-18T01:03:18.714Z,100591.08
2023-02-18T01:03:41.935Z,100588.79
2023-02-18T01:04:05.153Z,100587.22
2023-02-18T01:04:28.501Z,100586.73
2023-02-18T01:04:51.847Z,100584.34
2023-02-18T01:05:40.569Z,100584.32
2023-02-18T01:06:04.308Z,100582.98
2023-02-18T01:06:55.626Z,100582.69
2023-02-18T01:07:18.858Z,100579.63
2023-02-18T01:07:45.049Z,100577.11
2023-02-18T01:08:11.324Z,100581.81
2023-02-18T01:08:35.170Z,100581.00
2023-02-18T01:08:58.578Z,100578.11
2023-02-18T01:09:25.805Z,100579.66
2023-02-18T01:09:50.022Z,100578.17
2023-02-18T01:10:13.656Z,100582.04
2023-02-18T01:10:37.374Z,100579.81
2023-02-18T01:11:01.166Z,100579.82
2023-02-18T01:11:24.323Z,100581.78
2023-02-18T01:12:12.897Z,100582.89
2023-02-18T01:12:36.064Z,100588.80
2023-02-18T01:12:59.535Z,100591.13
2023-02-18T01:13:47.505Z,100588.71
2023-02-18T01:14:11.231Z,100593.75
2023-02-18T01:14:36.496Z,100591.66
2023-02-18T01:15:02.673Z,100591.15
2023-02-18T01:15:26.604Z,100592.91
2023-02-18T01:15:50.462Z,100590.48
2023-02-18T01:16:13.717Z,100593.05
2023-02-18T01:16:37.992Z,100593.04
2023-02-18T01:17:04.897Z,100594.42
2023-02-18T01:17:29.744Z,100595.30
2023-02-18T01:17:52.876Z,100593.71
2023-02-18T01:18:16.900Z,100592.50
2023-02-18T01:18:40.109Z,100595.60
2023-02-18T01:19:03.328Z,100595.58
2023-02-18T01:19:51.904Z,100593.42
2023-02-18T01:20:19.029Z,100591.73
2023-02-18T01:20:44.781Z,100590.90
2023-02-18T01:21:08.901Z,100590.30
2023-02-18T01:21:32.341Z,100590.02
2023-02-18T01:21:56.173Z,100588.87
2023-02-18T01:22:19.180Z,100589.98
2023-02-18T01:22:42.503Z,100583.48
2023-02-18T01:23:07.516Z,100589.81
2023-02-18T01:23:32.214Z,100589.08
2023-02-18T01:23:55.477Z,100585.87
2023-02-18T01:24:18.740Z,100586.67
2023-02-18T01:24:41.858Z,100586.64
2023-02-18T01:25:05.276Z,100584.02
2023-02-18T01:25:53.864Z,100582.98
2023-02-18T01:26:16.985Z,100584.54
2023-02-18T01:26:40.799Z,100581.98
2023-02-18T01:27:04.630Z,100584.08
2023-02-18T01:27:27.612Z,100583.05
2023-02-18T01:27:50.849Z,100583.63
2023-02-18T01:28:14.178Z,100579.84
2023-02-18T01:28:39.037Z,100578.98
2023-02-18T01:29:02.348Z,100579.87
2023-02-18T01:29:25.769Z,100578.49
2023-02-18T01:29:48.690Z,100575.44
2023-02-18T01:30:13.044Z,100577.35
2023-02-18T01:30:36.172Z,100577.04
2023-02-18T01:31:04.533Z,100575.50
2023-02-18T01:31:29.671Z,100572.76
2023-02-18T01:31:56.338Z,100574.20
2023-02-18T01:32:20.376Z,100570.39
2023-02-18T01:32:45.514Z,100572.46
2023-02-18T01:33:09.362Z,100573.17
2023-02-18T01:33:35.015Z,100571.11
2023-02-18T01:33:58.335Z,100574.77
2023-02-18T01:34:21.465Z,100572.36
2023-02-18T01:34:46.913Z,100574.07
2023-02-18T01:35:14.116Z,100568.90
2023-02-18T01:35:40.447Z,100574.27
2023-02-18T01:36:03.825Z,100576.01
2023-02-18T01:36:26.832Z,100576.90
2023-02-18T01:36:52.442Z,100575.17
2023-02-18T01:37:16.845Z,100576.61
2023-02-18T01:37:40.265Z,100574.73
2023-02-18T01:38:03.294Z,100575.77
2023-02-18T01:38:28.443Z,100575.07
2023-02-18T01:38:53.492Z,100573.30
2023-02-18T01:39:16.606Z,100576.02
2023-02-18T01:39:39.832Z,100575.25
2023-02-18T01:40:03.246Z,100574.83
2023-02-18T01:40:27.277Z,100572.66
2023-02-18T01:40:51.833Z,100574.49
2023-02-18T01:41:15.050Z,100573.02
2023-02-18T01:41:38.256Z,100575.17
2023-02-18T01:42:01.471Z,100574.05
2023-02-18T01:42:25.607Z,100569.98
2023-02-18T01:42:51.996Z,100571.96
2023-02-18T01:43:15.432Z,100570.52
2023-02-18T01:43:41.610Z,100565.94
2023-02-18T01:44:19.746Z,100569.18
2023-02-18T01:44:43.683Z,100565.39
2023-02-18T01:45:28.010Z,100565.42
2023-02-18T01:45:57.882Z,100561.46
2023-02-18T01:46:21.517Z,100560.88
2023-02-18T01:46:44.890Z,100558.48
2023-02-18T01:47:07.995Z,100557.32
2023-02-18T01:47:31.107Z,100555.98
2023-02-18T01:47:54.017Z,100555.67
2023-02-18T01:48:22.244Z,100553.45
2023-02-18T01:48:55.383Z,100549.88
2023-02-18T01:49:23.601Z,100552.51
2023-02-18T01:49:47.150Z,100548.06
2023-02-18T01:50:10.341Z,100548.45
2023-02-18T01:50:34.276Z,100548.13
2023-02-18T01:51:07.206Z,100546.27
2023-02-18T01:51:32.216Z,100547.20
2023-02-18T01:52:05.712Z,100546.37
2023-02-18T01:52:32.547Z,100546.91
2023-02-18T01:52:56.437Z,100545.23
2023-02-18T01:53:35.614Z,100546.16
2023-02-18T01:54:00.264Z,100547.23
2023-02-18T01:54:34.311Z,100547.29
2023-02-18T01:54:57.851Z,100548.35
2023-02-18T01:55:24.426Z,100545.75
2023-02-18T01:55:48.262Z,100546.65
2023-02-18T01:56:12.420Z,100544.70
2023-02-18T01:56:38.170Z,100543.45
2023-02-18T01:57:02.408Z,100540.09
2023-02-18T01:57:27.572Z,100540.54
2023-02-18T01:57:51.124Z,100543.41
2023-02-18T01:58:14.814Z,100537.30
2023-02-18T01:58:37.929Z,100539.63
2023-02-18T01:59:01.763Z,100534.35
2023-02-18T01:59:26.612Z,100533.74
2023-02-18T01:59:55.070Z,100533.38
2023-02-18T02:00:21.739Z,100531.74
2023-02-18T02:00:45.492Z,100531.50
2023-02-18T02:01:12.010Z,100533.09
2023-02-18T02:01:35.340Z,100531.15
2023-02-18T02:01:58.435Z,100526.50
2023-02-18T02:02:22.630Z,100525.45
2023-02-18T02:02:45.953Z,100523.06
2023-02-18T02:03:09.308Z,100523.92
2023-02-18T02:03:32.376Z,100524.86
2023-02-18T02:03:55.813Z,100522.48
2023-02-18T02:04:19.220Z,100523.21
2023-02-18T02:04:42.229Z,100520.31
2023-02-18T02:05:06.179Z,100517.42
2023-02-18T02:05:31.218Z,100515.05
2023-02-18T02:05:58.320Z,100516.13
2023-02-18T02:06:21.950Z,100515.80
2023-02-18T02:06:46.681Z,100514.59
2023-02-18T02:07:10.038Z,100515.32
2023-02-18T02:07:33.131Z,100518.27
2023-02-18T02:07:56.353Z,100519.02
2023-02-18T02:08:19.367Z,100523.59
2023-02-18T02:08:45.031Z,100524.35
2023-02-18T02:09:08.964Z,100523.02
2023-02-18T02:09:36.474Z,100524.49
2023-02-18T02:10:01.730Z,100528.34
2023-02-18T02:10:25.054Z,100527.20
2023-02-18T02:11:07.209Z,100531.21
2023-02-18T02:11:36.645Z,100529.73
2023-02-18T02:12:11.977Z,100524.39
2023-02-18T02:12:55.603Z,100523.57
2023-02-18T02:13:26.804Z,100520.46
2023-02-18T02:14:02.538Z,100520.61
2023-02-18T02:14:30.017Z,100519.66
2023-02-18T02:15:08.570Z,100517.35
2023-02-18T02:15:32.186Z,100514.27
2023-02-18T02:16:04.500Z,100511.61
2023-02-18T02:16:34.871Z,100511.15
2023-02-18T02:17:02.598Z,100506.54
2023-02-18T02:17:27.244Z,100507.48
2023-02-18T02:17:55.066Z,100505.70
2023-02-18T02:18:51.213Z,100504.08
2023-02-18T02:19:17.086Z,100501.98
2023-02-18T02:19:59.019Z,100498.86
2023-02-18T02:20:24.795Z,100494.38
2023-02-18T02:21:06.511Z,100496.52
2023-02-18T02:21:48.866Z,100496.27
2023-02-18T02:22:32.636Z,100492.92
2023-02-18T02:22:56.049Z,100493.04
2023-02-18T02:24:02.472Z,100491.94
2023-02-18T02:24:40.787Z,100488.60
2023-02-18T02:25:12.501Z,100490.62
2023-02-18T02:25:51.253Z,100491.59
2023-02-18T02:26:24.389Z,100491.19
2023-02-18T02:26:47.708Z,100484.86
2023-02-18T02:27:13.584Z,100487.45
2023-02-18T02:27:40.892Z,100487.77
2023-02-18T02:28:23.133Z,100486.90
2023-02-18T02:28:46.255Z,100488.02
2023-02-18T02:29:16.113Z,100487.42
2023-02-18T02:30:07.617Z,100485.63
2023-02-18T02:30:52.785Z,100486.36
2023-02-18T02:31:44.950Z,100488.65
2023-02-18T02:32:08.034Z,100487.66
2023-02-18T02:33:00.499Z,100486.81
2023-02-18T02:33:32.520Z,100488.30
2023-02-18T02:33:55.522Z,100486.95
2023-02-18T02:34:28.765Z,100488.91
2023-02-18T02:35:10.488Z,100486.52
2023-02-18T02:35:54.485Z,100485.88
2023-02-18T02:36:22.491Z,100486.45
2023-02-18T02:36:45.507Z,100483.23
2023-02-18T02:37:10.664Z,100477.37
2023-02-18T02:37:36.880Z,100481.20
2023-02-18T02:38:01.596Z,100481.03
2023-02-18T02:38:43.018Z,100478.09
2023-02-18T02:39:06.644Z,100479.20
2023-02-18T02:39:32.216Z,100481.48
2023-02-18T02:40:32.551Z,100478.95
2023-02-18T02:40:59.041Z,100479.58
2023-02-18T02:41:41.179Z,100483.55
2023-02-18T02:42:09.007Z,100484.75
2023-02-18T02:42:41.725Z,100482.45
2023-02-18T02:43:24.553Z,100483.61
2023-02-18T02:43:52.396Z,100482.84
2023-02-18T02:44:18.060Z,100484.51
2023-02-18T02:45:01.245Z,100485.11
2023-02-18T02:45:29.387Z,100485.02
2023-02-18T02:45:55.544Z,100489.48
2023-02-18T02:46:21.105Z,100492.59
2023-02-18T02:46:44.834Z,100488.41
2023-02-18T02:47:09.892Z,100489.45
2023-02-18T02:47:34.856Z,100487.41
2023-02-18T02:48:20.867Z,100484.82
2023-02-18T02:48:46.895Z,100487.78
2023-02-18T02:49:18.963Z,100488.99
2023-02-18T02:49:52.310Z,100491.24
2023-02-18T02:50:20.645Z,100492.14
2023-02-18T02:50:55.211Z,100490.44
2023-02-18T02:51:19.036Z,100489.09
2023-02-18T02:51:48.578Z,100486.83
2023-02-18T02:52:13.753Z,100490.13
2023-02-18T02:52:40.750Z,100488.45
2023-02-18T02:53:07.097Z,100486.38
2023-02-18T02:53:31.706Z,100488.48
2023-02-18T02:53:55.103Z,100485.20
2023-02-18T02:54:22.656Z,100487.42
2023-02-18T02:54:46.094Z,100484.69
2023-02-18T02:55:09.563Z,100484.88
2023-02-18T02:55:33.384Z,100485.41
2023-02-18T02:55:56.503Z,100482.99
2023-02-18T02:56:23.867Z,100485.94
2023-02-18T02:56:48.460Z,100483.66
2023-02-18T02:57:18.019Z,100484.10
2023-02-18T02:58:18.868Z,100479.58
2023-02-18T02:58:48.325Z,100478.60
2023-02-18T02:59:13.641Z,100481.45
2023-02-18T02:59:38.346Z,100476.50
2023-02-18T03:00:04.930Z,100477.29
2023-02-18T03:00:32.340Z,100477.91
2023-02-18T03:01:02.150Z,100476.79
2023-02-18T03:01:41.066Z,100472.74
2023-02-18T03:02:22.795Z,100472.84
2023-02-18T03:03:09.359Z,100471.07
2023-02-18T03:03:35.419Z,100469.88
2023-02-18T03:04:06.502Z,100470.60
2023-02-18T03:04:33.198Z,100463.86
2023-02-18T03:04:59.684Z,100465.60
2023-02-18T03:05:28.530Z,100466.69
2023-02-18T03:05:51.847Z,100461.70
2023-02-18T03:06:25.188Z,100463.42
2023-02-18T03:06:48.608Z,100461.36
2023-02-18T03:07:45.064Z,100459.52
2023-02-18T03:08:34.683Z,100455.40
2023-02-18T03:08:58.496Z,100452.69
2023-02-18T03:09:30.968Z,100453.46
2023-02-18T03:10:10.607Z,100453.50
2023-02-18T03:10:35.867Z,100452.67
2023-02-18T03:11:01.131Z,100451.48
2023-02-18T03:11:24.953Z,100450.77
2023-02-18T03:11:57.162Z,100451.09
2023-02-18T03:12:39.407Z,100448.24
2023-02-18T03:13:06.005Z,100448.48
2023-02-18T03:13:48.163Z,100450.88
2023-02-18T03:14:17.694Z,100444.90
2023-02-18T03:14:47.766Z,100446.95
2023-02-18T03:15:29.740Z,100447.26
2023-02-18T03:15:57.124Z,100446.33
2023-02-18T03:16:55.718Z,100444.90
2023-02-18T03:17:22.613Z,100444.52
2023-02-18T03:17:46.642Z,100449.39
2023-02-18T03:18:12.929Z,100447.46
2023-02-18T03:18:40.541Z,100449.95
2023-02-18T03:19:21.858Z,100450.14
2023-02-18T03:19:50.096Z,100447.06
2023-02-18T03:20:25.071Z,100443.48
2023-02-18T03:20:48.289Z,100441.73
2023-02-18T03:21:36.966Z,100439.17
2023-02-18T03:22:01.317Z,100439.44
2023-02-18T03:22:29.967Z,100436.55
2023-02-18T03:22:53.578Z,100433.80
2023-02-18T03:23:17.616Z,100432.10
2023-02-18T03:23:49.726Z,100433.76
2023-02-18T03:24:15.797Z,100428.42
2023-02-18T03:24:43.002Z,100424.98
2023-02-18T03:25:06.321Z,100424.02
2023-02-18T03:25:30.048Z,100422.96
2023-02-18T03:25:55.414Z,100421.58
2023-02-18T03:26:47.569Z,100423.27
2023-02-18T03:27:18.056Z,100419.60
2023-02-18T03:27:51.186Z,100420.41
2023-02-18T03:28:15.581Z,100418.06
2023-02-18T03:29:03.496Z,100417.69
2023-02-18T03:29:28.147Z,100413.95
2023-02-18T03:29:53.791Z,100412.15
2023-02-18T03:30:17.917Z,100410.71
2023-02-18T03:30:45.155Z,100408.42
2023-02-18T03:31:10.925Z,100413.95
2023-02-18T03:31:35.692Z,100412.89
2023-02-18T03:32:00.490Z,100413.73
2023-02-18T03:32:24.071Z,100412.89
2023-02-18T03:32:47.987Z,100414.44
2023-02-18T03:33:11.538Z,100414.64
2023-02-18T03:33:39.534Z,100410.34
2023-02-18T03:34:03.939Z,100413.63
2023-02-18T03:34:29.034Z,100414.20
2023-02-18T03:34:55.115Z,100415.98
2023-02-18T03:35:19.250Z,100414.66
2023-02-18T03:35:42.979Z,100417.46
2023-02-18T03:36:06.917Z,100417.53
2023-02-18T03:36:55.682Z,100419.46
2023-02-18T03:37:19.742Z,100424.10
2023-02-18T03:38:16.461Z,100426.59
2023-02-18T03:38:51.778Z,100422.18
2023-02-18T03:39:15.610Z,100420.50
2023-02-18T03:39:39.541Z,100419.86
2023-02-18T03:40:02.551Z,100416.92
2023-02-18T03:40:28.560Z,100415.80
2023-02-18T03:40:52.872Z,100415.62
2023-02-18T03:41:16.403Z,100415.62
2023-02-18T03:42:04.874Z,100415.44
2023-02-18T03:42:28.195Z,100414.52
2023-02-18T03:42:51.399Z,100418.48
2023-02-18T03:43:14.435Z,100417.01
2023-02-18T03:43:37.637Z,100419.23
2023-02-18T03:44:01.883Z,100424.89
2023-02-18T03:44:25.401Z,100417.73
2023-02-18T03:44:48.409Z,100415.95
2023-02-18T03:45:11.738Z,100419.88
2023-02-18T03:45:37.290Z,100414.78
2023-02-18T03:46:05.249Z,100415.63
2023-02-18T03:46:29.461Z,100412.80
2023-02-18T03:46:53.088Z,100413.30
2023-02-18T03:47:16.616Z,100411.73
2023-02-18T03:47:40.028Z,100408.10
2023-02-18T03:48:04.165Z,100409.48
2023-02-18T03:48:27.147Z,100409.67
2023-02-18T03:48:50.292Z,100408.13
2023-02-18T03:49:13.532Z,100407.95
2023-02-18T03:49:37.133Z,100409.77
2023-02-18T03:50:01.064Z,100410.46
2023-02-18T03:50:24.483Z,100405.71
2023-02-18T03:50:47.602Z,100404.49
2023-02-18T03:51:12.790Z,100408.36
2023-02-18T03:51:39.146Z,100403.04
2023-02-18T03:52:02.361Z,100401.70
2023-02-18T03:52:25.391Z,100400.85
2023-02-18T03:52:48.704Z,100399.52
2023-02-18T03:53:11.763Z,100397.14
2023-02-18T03:53:34.849Z,100394.74
2023-02-18T03:53:57.930Z,100397.55
2023-02-18T03:54:20.998Z,100394.10
2023-02-18T03:54:44.053Z,100394.48
2023-02-18T03:55:07.577Z,100396.23
2023-02-18T03:55:30.593Z,100393.48
2023-02-18T03:55:54.321Z,100392.64
2023-02-18T03:56:20.241Z,100392.13
2023-02-18T03:56:43.306Z,100392.30
2023-02-18T03:57:06.317Z,100394.80
2023-02-18T03:57:29.430Z,100395.52
2023-02-18T03:57:53.059Z,100395.01
2023-02-18T03:58:16.448Z,100397.27
2023-02-18T03:58:40.011Z,100397.57
2023-02-18T03:59:03.522Z,100400.14
2023-02-18T03:59:27.065Z,100398.89
2023-02-18T03:59:50.066Z,100400.95
2023-02-18T04:00:13.996Z,100399.17
2023-02-18T04:00:37.019Z,100399.99
2023-02-18T04:01:01.363Z,100403.91
2023-02-18T04:01:24.399Z,100404.39
2023-02-18T04:01:52.074Z,100406.23
2023-02-18T04:02:15.081Z,100401.98
2023-02-18T04:02:43.106Z,100406.41
2023-02-18T04:03:06.302Z,100402.36
2023-02-18T04:03:29.360Z,100404.54
2023-02-18T04:03:53.163Z,100405.58
2023-02-18T04:04:16.403Z,100406.27
2023-02-18T04:04:40.653Z,100406.31
2023-02-18T04:05:03.938Z,100408.44
2023-02-18T04:05:29.512Z,100409.67
2023-02-18T04:05:52.721Z,100408.85
2023-02-18T04:06:15.737Z,100408.00
2023-02-18T04:06:38.775Z,100408.52
2023-02-18T04:07:01.786Z,100405.27
2023-02-18T04:07:25.996Z,100407.04
2023-02-18T04:07:49.724Z,100406.56
2023-02-18T04:08:17.235Z,100403.14
2023-02-18T04:08:40.165Z,100402.48
2023-02-18T04:09:09.166Z,100402.17
2023-02-18T04:09:33.022Z,100396.98
2023-02-18T04:09:56.155Z,100396.27
2023-02-18T04:10:20.793Z,100396.81
2023-02-18T04:10:44.132Z,100393.85
2023-02-18T04:11:07.229Z,100388.98
2023-02-18T04:11:30.806Z,100387.73
2023-02-18T04:11:53.879Z,100386.48
2023-02-18T04:12:16.870Z,100386.06
2023-02-18T04:12:39.876Z,100384.43
2023-02-18T04:13:28.862Z,100385.41
2023-02-18T04:13:52.288Z,100383.86
2023-02-18T04:14:17.651Z,100378.20
2023-02-18T04:14:40.774Z,100381.79
2023-02-18T04:15:28.832Z,100379.52
2023-02-18T04:15:52.256Z,100379.71
2023-02-18T04:16:15.903Z,100375.86
2023-02-18T04:16:39.935Z,100375.64
2023-02-18T04:17:28.697Z,100372.66
2023-02-18T04:18:17.074Z,100366.58
2023-02-18T04:18:40.193Z,100364.21
2023-02-18T04:19:03.218Z,100361.27
2023-02-18T04:19:26.317Z,100362.69
2023-02-18T04:19:50.973Z,100357.48
2023-02-18T04:20:14.291Z,100358.39
2023-02-18T04:20:40.668Z,100356.13
2023-02-18T04:21:04.599Z,100355.61
2023-02-18T04:21:27.610Z,100349.77
2023-02-18T04:21:50.836Z,100347.71
2023-02-18T04:22:13.856Z,100348.77
2023-02-18T04:22:37.054Z,100345.71
2023-02-18T04:23:00.488Z,100342.94
2023-02-18T04:23:24.306Z,100340.54
2023-02-18T04:23:47.629Z,100346.47
2023-02-18T04:24:10.739Z,100343.73
2023-02-18T04:24:33.830Z,100344.43
2023-02-18T04:24:56.903Z,100344.41
2023-02-18T04:25:21.718Z,100340.38
2023-02-18T04:25:47.285Z,100340.84
2023-02-18T04:26:10.692Z,100342.01
2023-02-18T04:26:35.290Z,100338.45
2023-02-18T04:26:58.579Z,100332.87
2023-02-18T04:27:21.890Z,100333.67
2023-02-18T04:27:45.324Z,100332.05
2023-02-18T04:28:11.493Z,100329.75
2023-02-18T04:28:34.492Z,100325.52
2023-02-18T04:28:57.628Z,100327.36
2023-02-18T04:29:20.835Z,100325.80
2023-02-18T04:29:43.934Z,100322.42
2023-02-18T04:30:07.612Z,100321.33
2023-02-18T04:30:31.737Z,100318.85
2023-02-18T04:30:54.955Z,100317.09
2023-02-18T04:31:18.228Z,100316.21
2023-02-18T04:31:43.872Z,100310.98
2023-02-18T04:32:07.010Z,100311.21
2023-02-18T04:32:30.558Z,100308.64
2023-02-18T04:32:53.572Z,100307.27
2023-02-18T04:33:16.884Z,100304.34
2023-02-18T04:33:39.948Z,100305.58
2023-02-18T04:34:03.317Z,100304.94
2023-02-18T04:34:26.450Z,100302.75
2023-02-18T04:34:49.450Z,100300.19
2023-02-18T04:35:12.966Z,100302.83
2023-02-18T04:35:37.104Z,100301.46
2023-02-18T04:36:00.431Z,100304.64
2023-02-18T04:36:25.691Z,100304.99
2023-02-18T04:36:48.803Z,100302.27
2023-02-18T04:37:12.630Z,100303.66
2023-02-18T04:37:35.744Z,100302.83
2023-02-18T04:37:58.855Z,100301.84
2023-02-18T04:38:22.213Z,100299.60
2023-02-18T04:38:45.903Z,100298.10
2023-02-18T04:39:08.919Z,100301.43
2023-02-18T04:39:32.138Z,100298.84
2023-02-18T04:39:55.201Z,100297.45
2023-02-18T04:40:20.710Z,100297.27
2023-02-18T04:40:43.840Z,100295.86
2023-02-18T04:41:16.993Z,100293.20
2023-02-18T04:41:40.281Z,100294.30
2023-02-18T04:42:09.124Z,100292.34
2023-02-18T04:42:32.338Z,100290.52
2023-02-18T04:42:56.373Z,100290.46
2023-02-18T04:43:19.515Z,100287.95
2023-02-18T04:43:42.709Z,100290.88
2023-02-18T04:44:05.920Z,100290.96
2023-02-18T04:44:30.063Z,100287.64
2023-02-18T04:44:53.090Z,100294.70
2023-02-18T04:45:16.180Z,100292.77
2023-02-18T04:45:39.230Z,100293.93
2023-02-18T04:46:02.503Z,100293.98
2023-02-18T04:46:32.101Z,100299.39
2023-02-18T04:46:56.219Z,100302.55
2023-02-18T04:47:19.218Z,100303.96
2023-02-18T04:47:42.739Z,100306.92
2023-02-18T04:49:07.118Z,100319.27
2023-02-18T04:49:30.335Z,100321.48
2023-02-18T04:49:53.549Z,100319.60
2023-02-18T04:50:16.768Z,100322.94
2023-02-18T04:50:39.888Z,100320.14
2023-02-18T04:51:03.202Z,100319.30
2023-02-18T04:51:26.132Z,100320.36
2023-02-18T04:51:51.472Z,100322.07
2023-02-18T04:52:15.510Z,100322.09
2023-02-18T04:52:38.737Z,100318.98
2023-02-18T04:53:02.246Z,100326.25
2023-02-18T04:53:25.364Z,100319.45
2023-02-18T04:53:48.682Z,100325.66
2023-02-18T04:54:12.015Z,100321.77
2023-02-18T04:54:35.627Z,100317.52
2023-02-18T04:54:58.949Z,100319.39
2023-02-18T04:55:22.060Z,100314.61
2023-02-18T04:55:49.468Z,100310.89
2023-02-18T04:56:12.579Z,100312.69
2023-02-18T04:56:35.797Z,100307.09
2023-02-18T04:56:59.113Z,100306.28
2023-02-18T04:57:24.172Z,100305.19
2023-02-18T04:57:48.009Z,100306.48
2023-02-18T04:58:11.321Z,100305.75
2023-02-18T04:58:34.334Z,100304.13
2023-02-18T04:58:57.550Z,100302.36
2023-02-18T04:59:20.884Z,100301.98
2023-02-18T05:00:09.674Z,100299.52
2023-02-18T05:00:32.767Z,100299.20
2023-02-18T05:01:21.235Z,100298.02
2023-02-18T05:01:44.460Z,100295.42
2023-02-18T05:02:07.475Z,100293.16
2023-02-18T05:02:33.350Z,100291.48
2023-02-18T05:02:56.575Z,100284.05
2023-02-18T05:03:23.194Z,100282.00
2023-02-18T05:03:46.390Z,100281.54
2023-02-18T05:04:09.746Z,100277.02
2023-02-18T05:04:33.220Z,100274.97
2023-02-18T05:04:56.722Z,100275.48
2023-02-18T05:05:19.852Z,100273.30
2023-02-18T05:05:43.216Z,100272.27
2023-02-18T05:06:07.520Z,100274.69
2023-02-18T05:06:31.384Z,100274.04